ZYTXZYCC

Guest
Details From ZYTX - TAOXIAN
To ZYCC - LONGJIA
Flight Number -
Tags generated
Created
Modified
Stats Distance 172 nm / 318 km
Max Altitude 15,000 ft / 4,572 m
Waypoints 3
Social Downloads 0
Likes 0
Share VATSIM

Download

Looking for another format? Having issues loading an existing format? Contact us
Advertisement - Login to hide

Notes

Basic altitude profile: - Ascent Rate: 2500ft/min - Ascent Speed: 250kts - Cruise Altitude: 35000ft - Cruise Speed: 420kts - Descent Rate: 1500ft/min - Descent Speed: 250kts

Route

ZYTX ATVIM ZYCC

ID Type Via Altitude Latitude Longitude Leg Dist Tot Dist Heading (true) Name
O ZYTX APT - 0 ft / 0 m 41.63984˚ 123.48342˚ - 0 nm - TAOXIAN
ATVIM FIX - 15,000 ft / 4,572 m 43.01500˚ 124.62167˚ 96 nm 96 nm 31° / 32° -
O ZYCC APT - 0 ft / 0 m 43.99621˚ 125.68535˚ 74 nm 171 nm 38° / 39° LONGJIA

Altitude Profile

Advertisement - Login to hide

Weather


0- 5 10 15 20 25 30 35+ Temperature / ° C

Clouds and Precipitation
Forecast for 2017-12-16 12:00 UTC. Updated 32 minutes ago

Ground ~20,000 ft ~40,000 ft Winds

ZYTX

Details ICAO ZYTX (SHE)
Name TAOXIAN
Region China
Timezone Asia/Shanghai (UTC+8.0)
Stats Elevation 198 ft / 60 m (AMSL)
Location 41.639840° 123.483425°
Runways 1
Magnetic Variation 9.069° W

METAR

ZYTX 160730Z 30005MPS CAVOK M09/M23 Q1030 NOSIG

Decode

TAF

Not found

Departure Runways

ID Width Length Bearing (true) Bearing (mag) Surface Threshold Offset Overrun Length
06 148 ft / 45 m 10,461 ft / 3,189 m 48.62° 57.69° Concrete 0 ft / 0 m 197 ft / 60 m
24 148 ft / 45 m 10,461 ft / 3,189 m 228.64° 237.71° Concrete 0 ft / 0 m 197 ft / 60 m

ZYCC

Details ICAO ZYCC (CGQ)
Name LONGJIA
Region China
Timezone Asia/Harbin (UTC+8.0)
Stats Elevation 706 ft / 215 m (AMSL)
Location 43.996214° 125.685355°
Runways 1
Magnetic Variation 10.127° W

METAR

ZYCC 160700Z 29003MPS CAVOK M15/M22 Q1026 NOSIG

Decode

TAF

Not found

Destination Runways

ID Width Length Bearing (true) Bearing (mag) Surface Threshold Offset Overrun Length
06 148 ft / 45 m 10,485 ft / 3,196 m 49.12° 59.25° Concrete 0 ft / 0 m 198 ft / 60 m
24 148 ft / 45 m 10,485 ft / 3,196 m 229.14° 239.27° Concrete 0 ft / 0 m 198 ft / 60 m

Approach Navaids

Runway Type Ident Frequency Range Bearing (true) Bearing (mag) Slope Elevation
06 Localiser IDD 109.30 MHz 18 nm / 33 km 44.42° 54.55° - 705 ft / 215 m (AMSL)
06 Glidescope IDD 109.30 MHz 10 nm / 19 km 49.13° 59.26° 3.00° 705 ft / 215 m (AMSL)
06 DME IDD 109.30 MHz 18 nm / 33 km - - - 705 ft / 215 m (AMSL)
24 Localiser IPP 110.10 MHz 18 nm / 33 km 232.92° 243.05° - 705 ft / 215 m (AMSL)
24 Glidescope IPP 110.10 MHz 10 nm / 19 km 229.13° 239.26° 3.00° 705 ft / 215 m (AMSL)
24 DME IPP 110.10 MHz 18 nm / 33 km - - - 705 ft / 215 m (AMSL)